createdAt,value
2018-10-12T00:01:39.233Z,12.40
2018-10-12T00:04:08.159Z,12.30
2018-10-12T00:06:38.704Z,12.20
2018-10-12T00:09:09.430Z,12.20
2018-10-12T00:11:38.499Z,12.20
2018-10-12T00:14:08.548Z,12.10
2018-10-12T00:16:38.936Z,12.10
2018-10-12T00:19:08.723Z,12.00
2018-10-12T00:21:38.076Z,12.00
2018-10-12T00:24:08.598Z,11.90
2018-10-12T00:26:38.615Z,11.90
2018-10-12T00:29:08.343Z,11.90
2018-10-12T00:31:38.547Z,11.90
2018-10-12T00:34:08.551Z,11.90
2018-10-12T00:36:37.557Z,11.90
2018-10-12T00:39:09.031Z,11.90
2018-10-12T00:41:42.782Z,11.80
2018-10-12T00:44:11.677Z,11.90
2018-10-12T00:46:40.742Z,11.90
2018-10-12T00:49:10.782Z,11.80
2018-10-12T00:51:41.403Z,11.80
2018-10-12T00:54:10.381Z,11.80
2018-10-12T00:56:39.336Z,11.80
2018-10-12T00:59:07.953Z,11.80
2018-10-12T01:01:36.546Z,11.80
2018-10-12T01:04:05.517Z,11.80
2018-10-12T01:06:34.784Z,11.80
2018-10-12T01:09:04.387Z,11.70
2018-10-12T01:11:33.644Z,11.70
2018-10-12T01:14:02.547Z,11.70
2018-10-12T01:16:31.246Z,11.70
2018-10-12T01:19:00.886Z,11.70
2018-10-12T01:21:29.622Z,11.60
2018-10-12T01:23:59.025Z,11.60
2018-10-12T01:26:28.066Z,11.60
2018-10-12T01:28:58.081Z,11.60
2018-10-12T01:31:27.847Z,11.60
2018-10-12T01:33:56.764Z,11.60
2018-10-12T01:36:25.465Z,11.50
2018-10-12T01:38:54.571Z,11.50
2018-10-12T01:41:23.299Z,11.50
2018-10-12T01:43:52.298Z,11.50
2018-10-12T01:46:21.478Z,11.50
2018-10-12T01:48:50.444Z,11.50
2018-10-12T01:51:19.123Z,11.50
2018-10-12T01:53:48.715Z,11.50
2018-10-12T01:56:18.542Z,11.50
2018-10-12T01:58:47.441Z,11.50
2018-10-12T02:01:17.343Z,11.40
2018-10-12T02:03:48.163Z,11.40
2018-10-12T02:06:16.931Z,11.40
2018-10-12T02:08:45.854Z,11.40
2018-10-12T02:11:15.571Z,11.40
2018-10-12T02:13:45.420Z,11.30
2018-10-12T02:16:14.274Z,11.30
2018-10-12T02:18:43.970Z,11.30
2018-10-12T02:21:12.769Z,11.30
2018-10-12T02:23:41.698Z,11.30
2018-10-12T02:26:10.560Z,11.30
2018-10-12T02:28:39.800Z,11.20
2018-10-12T02:31:09.551Z,11.30
2018-10-12T02:33:38.799Z,11.20
2018-10-12T02:36:08.110Z,11.20
2018-10-12T02:38:37.742Z,11.20
2018-10-12T02:41:07.738Z,11.20
2018-10-12T02:43:36.835Z,11.20
2018-10-12T02:46:05.688Z,11.10
2018-10-12T02:48:34.660Z,11.10
2018-10-12T02:51:04.592Z,11.10
2018-10-12T02:53:34.081Z,11.10
2018-10-12T02:56:03.461Z,11.00
2018-10-12T02:58:32.061Z,11.00
2018-10-12T03:01:00.883Z,11.00
2018-10-12T03:03:30.773Z,11.00
2018-10-12T03:05:59.660Z,11.00
2018-10-12T03:08:28.675Z,11.00
2018-10-12T03:10:58.392Z,10.90
2018-10-12T03:13:27.303Z,10.90
2018-10-12T03:15:57.053Z,10.80
2018-10-12T03:18:25.870Z,10.80
2018-10-12T03:20:54.821Z,10.70
2018-10-12T03:23:23.542Z,10.70
2018-10-12T03:25:52.743Z,10.70
2018-10-12T03:28:31.332Z,10.60
2018-10-12T03:31:00.782Z,10.60
2018-10-12T03:33:30.128Z,10.60
2018-10-12T03:35:59.150Z,10.60
2018-10-12T03:38:27.962Z,10.50
2018-10-12T03:40:56.750Z,10.50
2018-10-12T03:43:25.524Z,10.50
2018-10-12T03:45:56.509Z,10.50
2018-10-12T03:48:25.059Z,10.50
2018-10-12T03:50:57.543Z,10.50
2018-10-12T03:53:32.308Z,10.50
2018-10-12T03:56:06.557Z,10.50
2018-10-12T03:58:41.722Z,10.50
2018-10-12T04:01:16.830Z,10.40
2018-10-12T04:03:50.826Z,10.40
2018-10-12T04:06:23.433Z,10.40
2018-10-12T04:08:57.829Z,10.40
2018-10-12T04:11:26.669Z,10.40
2018-10-12T04:13:57.965Z,10.30
2018-10-12T04:16:27.593Z,10.30
2018-10-12T04:25:39.393Z,10.30
2018-10-12T04:28:08.430Z,10.20
2018-10-12T04:30:37.441Z,10.20
2018-10-12T04:33:07.223Z,10.20
2018-10-12T04:35:39.014Z,10.20
2018-10-12T04:38:10.484Z,10.10
2018-10-12T04:41:14.866Z,10.10
2018-10-12T04:43:52.650Z,10.10
2018-10-12T04:46:29.501Z,10.10
2018-10-12T04:49:18.389Z,10.10
2018-10-12T04:51:57.712Z,10.10
2018-10-12T04:54:29.378Z,10.00
2018-10-12T04:57:05.389Z,10.00
2018-10-12T04:59:39.194Z,9.90
2018-10-12T05:02:08.154Z,9.90
2018-10-12T05:04:37.335Z,9.80
2018-10-12T05:07:10.607Z,9.70
2018-10-12T05:09:46.511Z,9.70
2018-10-12T05:12:18.247Z,9.70
2018-10-12T05:15:04.941Z,9.70
2018-10-12T05:17:34.037Z,9.70
2018-10-12T05:20:12.059Z,9.70
2018-10-12T05:22:44.851Z,9.70
2018-10-12T05:25:13.621Z,9.60
2018-10-12T05:27:42.602Z,9.60
2018-10-12T05:30:11.455Z,9.60
2018-10-12T05:32:40.079Z,9.60
2018-10-12T05:35:12.277Z,9.60
2018-10-12T05:37:44.392Z,9.60
2018-10-12T05:43:05.067Z,9.70
2018-10-12T05:45:36.392Z,9.60
2018-10-12T05:48:16.130Z,9.70
2018-10-12T05:50:45.745Z,9.70
2018-10-12T05:53:18.390Z,9.70
2018-10-12T05:55:49.268Z,9.60
2018-10-12T05:58:30.488Z,9.60
2018-10-12T06:00:59.699Z,9.60
2018-10-12T06:03:28.488Z,9.70
2018-10-12T06:05:57.462Z,9.70
2018-10-12T06:08:26.086Z,9.70
2018-10-12T06:10:54.899Z,9.70
2018-10-12T06:13:23.644Z,9.80
2018-10-12T06:15:52.551Z,9.80
2018-10-12T06:18:21.767Z,9.90
2018-10-12T06:20:50.503Z,9.90
2018-10-12T06:23:19.422Z,10.00
2018-10-12T06:25:49.831Z,10.10
2018-10-12T06:28:19.666Z,10.10
2018-10-12T06:30:50.515Z,10.20
2018-10-12T06:33:57.953Z,10.30
2018-10-12T06:36:26.436Z,10.40
2018-10-12T06:38:54.958Z,11.10
2018-10-12T06:41:23.476Z,15.90
2018-10-12T06:43:52.040Z,19.50
2018-10-12T06:46:20.549Z,22.40
2018-10-12T06:48:49.022Z,24.80
2018-10-12T06:51:17.527Z,26.60
2018-10-12T06:53:46.001Z,28.20
2018-10-12T06:56:14.732Z,29.60
2018-10-12T06:58:44.286Z,30.80
2018-10-12T07:01:13.075Z,31.20
2018-10-12T07:03:41.904Z,31.70
2018-10-12T07:06:11.044Z,31.50
2018-10-12T07:08:39.654Z,32.50
2018-10-12T07:11:09.156Z,33.30
2018-10-12T07:13:37.826Z,33.80
2018-10-12T07:16:06.329Z,34.40
2018-10-12T07:18:34.902Z,35.00
2018-10-12T07:21:03.764Z,34.60
2018-10-12T07:23:32.324Z,35.40
2018-10-12T07:26:01.184Z,35.80
2018-10-12T07:28:29.810Z,36.60
2018-10-12T07:30:58.358Z,36.60
2018-10-12T07:33:26.935Z,36.80
2018-10-12T07:35:55.462Z,37.50
2018-10-12T07:38:24.155Z,37.10
2018-10-12T07:40:52.691Z,37.00
2018-10-12T07:43:22.045Z,37.40
2018-10-12T07:45:50.760Z,37.50
2018-10-12T07:48:19.378Z,37.50
2018-10-12T07:50:47.916Z,37.60
2018-10-12T07:53:16.535Z,37.50
2018-10-12T07:55:45.098Z,38.30
2018-10-12T07:58:13.634Z,37.80
2018-10-12T08:00:42.189Z,37.50
2018-10-12T08:03:10.772Z,37.50
2018-10-12T08:05:39.376Z,37.40
2018-10-12T08:08:08.277Z,38.00
2018-10-12T08:10:36.837Z,38.20
2018-10-12T08:13:05.647Z,38.00
2018-10-12T08:15:34.243Z,38.20
2018-10-12T08:18:02.839Z,38.60
2018-10-12T08:20:31.718Z,38.60
2018-10-12T08:23:00.311Z,38.50
2018-10-12T08:25:28.878Z,38.70
2018-10-12T08:27:57.569Z,38.00
2018-10-12T08:30:26.242Z,38.00
2018-10-12T08:32:55.011Z,37.60
2018-10-12T08:35:23.551Z,38.10
2018-10-12T08:37:52.155Z,38.40
2018-10-12T08:40:21.046Z,38.50
2018-10-12T08:42:49.594Z,39.10
2018-10-12T08:45:18.176Z,39.00
2018-10-12T08:47:46.749Z,38.50
2018-10-12T08:50:15.433Z,37.90
2018-10-12T08:52:43.986Z,36.10
2018-10-12T08:55:12.542Z,34.00
2018-10-12T08:57:41.067Z,32.30
2018-10-12T09:00:09.645Z,31.20
2018-10-12T09:02:38.241Z,30.30
2018-10-12T09:05:06.831Z,29.40
2018-10-12T09:07:35.518Z,28.80
2018-10-12T09:10:04.305Z,28.40
2018-10-12T09:12:32.894Z,28.10
2018-10-12T09:15:01.573Z,28.00
2018-10-12T09:17:30.139Z,28.00
2018-10-12T09:19:59.165Z,27.70
2018-10-12T09:22:27.698Z,27.60
2018-10-12T09:24:56.491Z,27.70
2018-10-12T09:27:25.128Z,27.40
2018-10-12T09:29:53.668Z,27.50
2018-10-12T09:32:22.358Z,27.00
2018-10-12T09:34:50.920Z,26.60
2018-10-12T09:37:19.463Z,26.60
2018-10-12T09:39:48.392Z,26.70
2018-10-12T09:42:17.128Z,26.60
2018-10-12T09:44:45.661Z,26.80
2018-10-12T09:47:14.368Z,26.50
2018-10-12T09:49:42.914Z,26.40
2018-10-12T09:52:11.507Z,26.40
2018-10-12T09:54:40.319Z,26.10
2018-10-12T09:57:14.379Z,26.20
2018-10-12T09:59:43.343Z,26.10
2018-10-12T10:02:17.401Z,25.90
2018-10-12T10:04:46.169Z,25.80
2018-10-12T10:07:14.822Z,25.70
2018-10-12T10:09:43.632Z,25.30
2018-10-12T10:12:12.168Z,25.50
2018-10-12T10:14:40.732Z,25.50
2018-10-12T10:17:09.321Z,25.50
2018-10-12T10:19:38.185Z,25.60
2018-10-12T10:22:06.797Z,25.30
2018-10-12T10:24:35.402Z,25.30
2018-10-12T10:27:04.952Z,25.20
2018-10-12T10:29:33.484Z,25.10
2018-10-12T10:32:02.608Z,25.10
2018-10-12T10:34:31.376Z,25.00
2018-10-12T10:36:59.939Z,24.90
2018-10-12T10:39:28.560Z,24.60
2018-10-12T10:41:57.307Z,24.50
2018-10-12T10:44:25.853Z,24.20
2018-10-12T10:46:54.415Z,24.10
2018-10-12T10:49:23.128Z,24.00
2018-10-12T10:51:51.765Z,24.10
2018-10-12T10:54:20.543Z,24.00
2018-10-12T10:56:49.151Z,23.70
2018-10-12T10:59:17.722Z,23.70
2018-10-12T11:01:46.238Z,23.60
2018-10-12T11:04:14.789Z,23.50
2018-10-12T11:06:43.313Z,23.50
2018-10-12T11:09:11.884Z,23.50
2018-10-12T11:11:40.418Z,23.50
2018-10-12T11:14:08.932Z,23.40
2018-10-12T11:16:38.023Z,23.30
2018-10-12T11:19:07.057Z,22.90
2018-10-12T11:21:35.642Z,22.90
2018-10-12T11:24:04.414Z,23.00
2018-10-12T11:26:33.081Z,23.00
2018-10-12T11:29:01.830Z,22.90
2018-10-12T11:31:30.447Z,22.80
2018-10-12T11:33:59.348Z,22.70
2018-10-12T11:36:28.328Z,22.80
2018-10-12T11:38:56.910Z,22.70
2018-10-12T11:41:26.290Z,22.80
2018-10-12T11:43:55.019Z,22.60
2018-10-12T11:46:23.711Z,22.70
2018-10-12T11:48:52.278Z,22.70
2018-10-12T11:51:21.078Z,22.60
2018-10-12T11:53:49.647Z,22.60
2018-10-12T11:56:18.198Z,22.60
2018-10-12T11:58:46.954Z,22.70
2018-10-12T12:01:15.727Z,22.60
2018-10-12T12:03:44.340Z,22.50
2018-10-12T12:06:13.024Z,22.60
2018-10-12T12:08:41.816Z,22.60
2018-10-12T12:11:10.370Z,22.50
2018-10-12T12:13:38.947Z,22.50
2018-10-12T12:16:07.898Z,22.60
2018-10-12T12:18:36.627Z,22.60
2018-10-12T12:21:05.192Z,22.60
2018-10-12T12:23:33.883Z,22.70
2018-10-12T12:26:02.623Z,22.80
2018-10-12T12:28:31.156Z,22.80
2018-10-12T12:31:00.201Z,22.70
2018-10-12T12:33:28.858Z,22.80
2018-10-12T12:35:57.977Z,22.80
2018-10-12T12:38:26.398Z,22.80
2018-10-12T12:40:54.973Z,22.90
2018-10-12T12:43:23.676Z,22.70
2018-10-12T12:45:52.164Z,22.80
2018-10-12T12:48:21.479Z,22.70
2018-10-12T12:50:50.251Z,22.60
2018-10-12T12:53:18.934Z,22.60
2018-10-12T12:55:47.658Z,22.60
2018-10-12T12:58:16.340Z,22.50
2018-10-12T13:00:44.995Z,22.50
2018-10-12T13:03:13.449Z,22.40
2018-10-12T13:05:42.004Z,22.30
2018-10-12T13:08:10.560Z,22.40
2018-10-12T13:10:39.362Z,22.40
2018-10-12T13:13:07.948Z,22.30
2018-10-12T13:15:36.823Z,22.40
2018-10-12T13:18:05.455Z,22.20
2018-10-12T13:20:33.979Z,22.20
2018-10-12T13:23:02.615Z,22.20
2018-10-12T13:25:31.128Z,22.20
2018-10-12T13:27:59.716Z,22.20
2018-10-12T13:30:28.305Z,22.10
2018-10-12T13:32:56.955Z,22.10
2018-10-12T13:35:25.535Z,22.10
2018-10-12T13:37:54.087Z,22.10
2018-10-12T13:40:22.599Z,22.00
2018-10-12T13:42:51.523Z,22.00
2018-10-12T13:45:20.195Z,21.90
2018-10-12T13:47:49.452Z,21.90
2018-10-12T13:50:18.133Z,21.80
2018-10-12T13:52:46.855Z,21.70
2018-10-12T13:55:15.346Z,21.70
2018-10-12T13:57:43.990Z,21.70
2018-10-12T14:00:12.682Z,21.70
2018-10-12T14:02:41.288Z,21.70
2018-10-12T14:05:09.828Z,21.70
2018-10-12T14:07:38.578Z,21.70
2018-10-12T14:10:07.311Z,21.70
2018-10-12T14:12:35.870Z,21.70
2018-10-12T14:15:04.870Z,21.60
2018-10-12T14:17:33.414Z,21.70
2018-10-12T14:20:02.015Z,21.60
2018-10-12T14:22:30.924Z,21.50
2018-10-12T14:24:59.511Z,21.60
2018-10-12T14:27:28.033Z,21.60
2018-10-12T14:29:56.593Z,21.60
2018-10-12T14:32:25.434Z,21.60
2018-10-12T14:34:54.231Z,21.60
2018-10-12T14:37:22.818Z,21.60
2018-10-12T14:39:51.501Z,21.60
2018-10-12T14:42:20.041Z,21.50
2018-10-12T14:44:48.677Z,21.50
2018-10-12T14:47:17.212Z,21.50
2018-10-12T14:49:45.749Z,21.50
2018-10-12T14:52:14.372Z,21.40
2018-10-12T14:58:05.529Z,21.20
2018-10-12T15:00:34.919Z,21.20
2018-10-12T15:03:04.387Z,21.10
2018-10-12T15:05:33.207Z,21.10
2018-10-12T15:08:01.790Z,21.00
2018-10-12T15:10:30.782Z,20.90
2018-10-12T15:16:00.817Z,20.80
2018-10-12T15:18:29.478Z,20.70
2018-10-12T15:20:58.234Z,20.70
2018-10-12T15:23:27.116Z,20.60
2018-10-12T15:25:55.711Z,20.50
2018-10-12T15:28:24.464Z,20.40
2018-10-12T15:30:53.264Z,20.30
2018-10-12T15:33:21.963Z,20.30
2018-10-12T15:35:50.732Z,20.30
2018-10-12T15:38:19.309Z,20.20
2018-10-12T15:40:47.919Z,20.20
2018-10-12T15:43:16.699Z,20.10
2018-10-12T15:45:45.220Z,20.10
2018-10-12T15:48:13.755Z,20.00
2018-10-12T15:50:42.281Z,19.90
2018-10-12T15:53:10.974Z,19.80
2018-10-12T15:55:39.806Z,19.80
2018-10-12T15:58:08.447Z,19.70
2018-10-12T16:00:36.979Z,19.70
2018-10-12T16:03:05.696Z,19.60
2018-10-12T16:05:34.354Z,19.60
2018-10-12T16:08:03.043Z,19.60
2018-10-12T16:10:32.175Z,19.50
2018-10-12T16:13:01.032Z,19.50
2018-10-12T16:15:29.601Z,19.40
2018-10-12T16:17:58.198Z,19.30
2018-10-12T16:20:27.169Z,19.20
2018-10-12T16:22:55.815Z,19.10
2018-10-12T16:26:16.380Z,19.10
2018-10-12T16:28:45.196Z,19.00
2018-10-12T16:31:14.043Z,18.80
2018-10-12T16:33:42.901Z,18.80
2018-10-12T16:36:12.185Z,18.60
2018-10-12T16:38:40.968Z,18.60
2018-10-12T16:41:09.499Z,18.50
2018-10-12T16:43:38.190Z,18.40
2018-10-12T16:46:06.840Z,18.50
2018-10-12T16:48:35.653Z,18.40
2018-10-12T16:51:04.318Z,18.40
2018-10-12T16:53:32.930Z,18.30
2018-10-12T16:56:01.525Z,18.20
2018-10-12T16:58:30.208Z,18.10
2018-10-12T17:00:58.803Z,18.00
2018-10-12T17:03:27.709Z,17.80
2018-10-12T17:05:57.977Z,17.70
2018-10-12T17:08:27.026Z,17.70
2018-10-12T17:10:55.755Z,17.50
2018-10-12T17:13:24.338Z,17.60
2018-10-12T17:15:53.015Z,17.50
2018-10-12T17:18:21.673Z,17.50
2018-10-12T17:20:50.225Z,17.50
2018-10-12T17:23:19.275Z,17.50
2018-10-12T17:25:48.729Z,17.40
2018-10-12T17:28:17.429Z,17.40
2018-10-12T17:30:46.092Z,17.40
2018-10-12T17:33:14.941Z,17.30
2018-10-12T17:35:43.697Z,17.30
2018-10-12T17:38:12.275Z,17.20
2018-10-12T17:40:40.842Z,17.20
2018-10-12T17:43:10.423Z,17.10
2018-10-12T17:45:39.031Z,17.10
2018-10-12T17:48:07.563Z,17.00
2018-10-12T17:50:36.152Z,17.00
2018-10-12T17:53:04.868Z,16.90
2018-10-12T17:55:33.472Z,16.90
2018-10-12T17:58:02.139Z,16.80
2018-10-12T18:00:30.876Z,16.80
2018-10-12T18:02:59.368Z,16.80
2018-10-12T18:05:27.889Z,16.80
2018-10-12T18:07:56.479Z,16.80
2018-10-12T18:10:25.354Z,16.70
2018-10-12T18:12:54.584Z,16.70
2018-10-12T18:15:23.261Z,16.70
2018-10-12T18:17:51.883Z,16.60
2018-10-12T18:20:20.423Z,16.50
2018-10-12T18:22:49.160Z,16.40
2018-10-12T18:25:17.985Z,16.40
2018-10-12T18:27:46.843Z,16.40
2018-10-12T18:30:15.391Z,16.40
2018-10-12T18:32:44.042Z,16.40
2018-10-12T18:35:12.861Z,16.30
2018-10-12T18:37:42.760Z,16.30
2018-10-12T18:40:11.384Z,16.30
2018-10-12T18:42:40.285Z,16.30
2018-10-12T18:45:09.245Z,16.30
2018-10-12T18:47:37.920Z,16.20
2018-10-12T18:50:07.063Z,16.20
2018-10-12T18:52:36.199Z,16.20
2018-10-12T18:55:05.052Z,16.20
2018-10-12T18:57:35.168Z,16.10
2018-10-12T19:00:06.000Z,16.10
2018-10-12T19:02:35.020Z,16.10
2018-10-12T19:05:04.625Z,16.10
2018-10-12T19:07:33.601Z,16.00
2018-10-12T19:10:02.256Z,16.00
2018-10-12T19:12:30.912Z,16.00
2018-10-12T19:14:59.662Z,16.00
2018-10-12T19:17:28.344Z,16.00
2018-10-12T19:19:57.179Z,16.00
2018-10-12T19:22:25.990Z,15.90
2018-10-12T19:24:54.681Z,15.90
2018-10-12T19:27:23.604Z,15.90
2018-10-12T19:29:52.340Z,15.80
2018-10-12T19:32:20.959Z,15.70
2018-10-12T19:37:30.432Z,15.50
2018-10-12T19:39:59.225Z,15.40
2018-10-12T19:42:28.575Z,15.30
2018-10-12T19:44:57.449Z,15.30
2018-10-12T19:47:26.481Z,15.20
2018-10-12T19:49:55.227Z,15.20
2018-10-12T19:52:24.193Z,15.10
2018-10-12T19:54:52.788Z,15.10
2018-10-12T19:57:21.356Z,15.10
2018-10-12T19:59:49.939Z,15.10
2018-10-12T20:02:18.549Z,15.10
2018-10-12T20:04:47.560Z,15.10
2018-10-12T20:07:16.352Z,15.10
2018-10-12T20:09:45.382Z,15.10
2018-10-12T20:12:14.181Z,15.00
2018-10-12T20:14:43.157Z,15.00
2018-10-12T20:17:11.677Z,14.90
2018-10-12T20:19:40.398Z,14.90
2018-10-12T20:22:10.817Z,14.90
2018-10-12T20:24:40.201Z,14.70
2018-10-12T20:27:08.770Z,14.60
2018-10-12T20:29:38.022Z,14.50
2018-10-12T20:32:07.916Z,14.50
2018-10-12T20:34:37.120Z,14.50
2018-10-12T20:37:06.668Z,14.50
2018-10-12T20:39:35.369Z,14.40
2018-10-12T20:42:04.119Z,14.40
2018-10-12T20:44:32.676Z,14.30
2018-10-12T20:47:01.542Z,14.30
2018-10-12T20:49:30.104Z,14.20
2018-10-12T20:51:58.750Z,14.10
2018-10-12T20:54:28.150Z,14.10
2018-10-12T20:56:56.986Z,13.90
2018-10-12T20:59:26.024Z,13.90
2018-10-12T21:01:54.891Z,13.80
2018-10-12T21:04:23.621Z,13.80
2018-10-12T21:06:52.244Z,13.80
2018-10-12T21:09:21.020Z,13.70
2018-10-12T21:11:49.838Z,13.60
2018-10-12T21:14:18.429Z,13.50
2018-10-12T21:16:47.207Z,13.50
2018-10-12T21:19:15.793Z,13.50
2018-10-12T21:21:44.340Z,13.40
2018-10-12T21:24:13.091Z,13.40
2018-10-12T21:26:41.770Z,13.40
2018-10-12T21:29:10.811Z,13.40
2018-10-12T21:31:39.372Z,13.40
2018-10-12T21:34:08.315Z,13.30
2018-10-12T21:36:36.838Z,13.30
2018-10-12T21:39:06.569Z,13.20
2018-10-12T21:41:35.498Z,13.20
2018-10-12T21:44:04.084Z,13.20
2018-10-12T21:46:32.714Z,13.10
2018-10-12T21:49:01.760Z,13.10
2018-10-12T21:51:30.811Z,13.10
2018-10-12T21:53:59.565Z,13.00
2018-10-12T21:56:28.122Z,13.00
2018-10-12T21:58:56.639Z,13.00
2018-10-12T22:01:25.197Z,13.00
2018-10-12T22:03:53.749Z,13.00
2018-10-12T22:06:22.412Z,13.00
2018-10-12T22:08:53.501Z,13.00
2018-10-12T22:11:22.112Z,12.90
2018-10-12T22:13:50.803Z,12.90
2018-10-12T22:16:19.310Z,12.80
2018-10-12T22:18:47.828Z,12.70
2018-10-12T22:21:16.433Z,12.70
2018-10-12T22:23:44.971Z,12.50
2018-10-12T22:26:13.793Z,12.50
2018-10-12T22:28:43.096Z,12.40
2018-10-12T22:31:11.622Z,12.40
2018-10-12T22:33:40.310Z,12.40
2018-10-12T22:36:08.874Z,12.40
2018-10-12T22:38:37.591Z,12.30
2018-10-12T22:41:06.568Z,12.30
2018-10-12T22:43:35.284Z,12.30
2018-10-12T22:46:04.093Z,12.30
2018-10-12T22:48:32.636Z,12.30
2018-10-12T22:51:01.447Z,12.30
2018-10-12T22:53:30.609Z,12.20
2018-10-12T22:55:59.203Z,12.20
2018-10-12T22:58:27.881Z,12.20
2018-10-12T23:00:56.396Z,12.20
2018-10-12T23:03:24.928Z,12.20
2018-10-12T23:05:53.586Z,12.20
2018-10-12T23:08:22.211Z,12.20
2018-10-12T23:10:50.906Z,12.10
2018-10-12T23:13:19.509Z,12.10
2018-10-12T23:15:48.238Z,12.00
2018-10-12T23:18:17.109Z,12.00
2018-10-12T23:20:46.308Z,12.00
2018-10-12T23:23:14.887Z,12.00
2018-10-12T23:25:43.474Z,11.90
2018-10-12T23:28:12.120Z,11.90
2018-10-12T23:30:40.624Z,11.80
2018-10-12T23:33:22.945Z,11.90
2018-10-12T23:35:51.749Z,11.80
2018-10-12T23:38:20.449Z,11.80
2018-10-12T23:40:49.308Z,11.70
2018-10-12T23:43:17.836Z,11.70
2018-10-12T23:45:46.572Z,11.60
2018-10-12T23:48:15.086Z,11.60
2018-10-12T23:50:43.824Z,11.50
2018-10-12T23:53:12.533Z,11.40
2018-10-12T23:55:41.212Z,11.40
2018-10-12T23:58:09.804Z,11.30
